Data for 07/09/2007

Time Sea-Level Adjusted Pressure Absolute Pressure Temperature Relative Humidity Dew Point   
(mb) (inHg) (mb) (inHg) (C) (F) (%) (C) (F)
00:05 1018 30.06 847 25.01 19.1 66.4 69 13.3 55.9
00:10 1018 30.06 847 25.01 19 66.2 69 13.2 55.7
00:15 1018 30.06 847 25.01 19 66.2 69 13.2 55.8
00:20 1018 30.06 847 25.01 18.9 66.1 69 13.2 55.8
00:25 1018 30.06 847 25.01 18.9 65.9 69 13.2 55.7
00:30 1018 30.06 847 25.01 18.8 65.9 69 13.2 55.7
00:35 1018 30.06 847 25.01 18.8 65.8 70 13.2 55.8
00:40 1018 30.06 847 25.01 18.6 65.5 70 13.1 55.7
00:45 1018 30.06 847 25.01 18.6 65.4 71 13.2 55.7
00:50 1018 30.06 847 25.01 18.4 65.1 71 13.1 55.6
00:55 1018 30.06 847 25.01 18.3 65 72 13.2 55.7
01:00 1018 30.06 847 25.01 18.2 64.8 71 13 55.4
01:05 1018 30.06 847 25.01 18.2 64.8 71 13 55.3
01:10 1018 30.06 847 25.01 18.2 64.8 71 13 55.4
01:15 1018 30.06 847 25.01 18.3 64.9 70 12.9 55.2
01:20 1018 30.06 847 25.01 18.3 64.9 71 13 55.4
01:25 1018 30.06 847 25.01 18.1 64.6 71 12.9 55.2
01:30 1018 30.06 847 25.01 18.1 64.5 71 12.8 55.1
01:35 1018 30.06 847 25.01 18.1 64.5 71 12.9 55.2
01:40 1018 30.06 847 25.01 18 64.4 72 12.8 55.1
01:45 1018 30.06 847 25.01 18 64.3 72 12.9 55.2
01:50 1018 30.06 847 25.01 17.8 64.1 72 12.8 55.1
01:55 1018 30.06 847 25.01 17.7 63.8 73 12.8 55.1
02:00 1018 30.06 847 25.01 17.4 63.4 74 12.8 55.1
02:05 1018 30.06 847 25.01 16.8 62.2 76 12.6 54.7
02:10 1018 30.06 847 25.01 16.6 61.9 77 12.6 54.7
02:15 1018 30.06 847 25.01 16.5 61.6 78 12.6 54.7
02:20 1018 30.06 847 25.01 16.2 61.2 78 12.5 54.4
02:25 1018 30.06 847 25.01 16.1 61 78 12.4 54.3
02:30 1018 30.06 847 25.01 16.1 61 78 12.4 54.3
02:35 1018 30.06 847 25.01 16.1 60.9 78 12.2 53.9
02:40 1018 30.06 847 25.01 16.2 61.1 77 12.2 53.9
02:45 1018 30.06 848 25.04 16.1 61 78 12.2 54
02:50 1018 30.06 848 25.04 15.9 60.7 78 12.1 53.8
02:55 1018 30.06 847 25.01 15.8 60.5 78 12.1 53.8
03:00 1018 30.06 848 25.04 15.8 60.4 79 12.1 53.8
03:05 1018 30.06 847 25.01 15.7 60.3 79 12.2 53.9
03:10 1018 30.06 847 25.01 15.8 60.4 79 12.2 53.9
03:15 1018 30.06 847 25.01 15.7 60.3 79 12.1 53.8
03:20 1018 30.06 847 25.01 15.7 60.3 79 12.1 53.7
03:25 1018 30.06 847 25.01 15.6 60.2 78 11.9 53.4
03:30 1018 30.06 847 25.01 15.6 60 79 11.9 53.4
03:35 1018 30.06 847 25.01 15.5 59.8 79 11.8 53.3
03:40 1018 30.06 847 25.01 15.4 59.7 81 12.2 54
03:45 1018 30.06 848 25.04 15.4 59.7 79 11.8 53.2
03:50 1018 30.06 847 25.01 15.3 59.5 78 11.6 52.8
03:55 1018 30.06 847 25.01 15.3 59.5 78 11.5 52.6
04:00 1018 30.06 847 25.01 15.5 59.8 76 11.3 52.3
04:05 1018 30.06 847 25.01 15.5 59.8 74 10.8 51.5
04:10 1018 30.06 847 25.01 15.6 60.1 74 10.9 51.7
04:15 1018 30.06 847 25.01 15.9 60.5 74 11.2 52.2
04:20 1018 30.06 847 25.01 15.6 60.1 76 11.4 52.5
04:25 1018 30.06 848 25.04 15.3 59.5 78 11.5 52.7
04:30 1018 30.06 848 25.04 15.1 59.2 80 11.7 53
04:35 1018 30.06 847 25.01 15.1 59.1 80 11.7 53.1
04:40 1018 30.06 847 25.01 15 59.1 80 11.6 53
04:45 1018 30.06 847 25.01 14.9 58.9 81 11.7 53
04:50 1018 30.06 847 25.01 14.9 58.8 81 11.6 52.9
04:55 1018 30.06 847 25.01 14.8 58.7 81 11.6 52.8
05:00 1018 30.06 847 25.01 14.7 58.5 81 11.5 52.8
05:05 1018 30.06 847 25.01 14.5 58.2 81 11.3 52.4
05:10 1018 30.06 847 25.01 14.3 57.8 82 11.3 52.3
05:15 1018 30.06 847 25.01 14.2 57.5 82 11.1 52
05:20 1018 30.06 847 25.01 14.2 57.6 80 10.9 51.6
05:25 1018 30.06 847 25.01 14.3 57.7 79 10.8 51.4
05:30 1018 30.06 847 25.01 14.3 57.7 78 10.6 51.1
05:35 1018 30.06 847 25.01 14.3 57.8 77 10.5 50.8
05:40 1018 30.06 847 25.01 14.3 57.7 79 10.7 51.3
05:45 1018 30.06 847 25.01 14.1 57.4 79 10.5 50.8
05:50 1018 30.06 847 25.01 14 57.2 77 10.1 50.2
05:55 1018 30.06 847 25.01 13.9 57.1 77 10.1 50.1
06:00 1018 30.06 847 25.01 14.1 57.3 78 10.4 50.7
06:05 1018 30.06 847 25.01 14.3 57.7 77 10.2 50.4
06:10 1018 30.06 847 25.01 14.7 58.5 74 10.3 50.5
06:15 1018 30.06 847 25.01 15 59 75 10.7 51.3
06:20 1018 30.06 847 25.01 15 59 72 10 50.1
06:25 1018 30.06 847 25.01 15 58.9 72 10 49.9
06:30 1018 30.06 847 25.01 14.9 58.9 72 10 49.9
06:35 1018 30.06 847 25.01 15 58.9 72 9.9 49.9
06:40 1018 30.06 847 25.01 14.9 58.9 72 9.9 49.9
06:45 1018 30.06 848 25.04 14.8 58.7 73 10.1 50.2
06:50 1018 30.06 848 25.04 14.9 58.7 73 10.2 50.3
06:55 1018 30.06 848 25.04 15 58.9 73 10.2 50.3
07:00 1018 30.06 848 25.04 15.1 59.1 72 10.1 50.2
07:05 1018 30.06 848 25.04 15.1 59.2 71 9.9 49.9
07:10 1018 30.06 848 25.04 15.2 59.3 71 10.1 50.1
07:15 1018 30.06 848 25.04 15.5 59.9 70 10.1 50.1
07:20 1019 30.09 848 25.04 15.7 60.2 69 10.1 50.1
07:25 1019 30.09 848 25.04 16 60.8 67 10 49.9
07:30 1019 30.09 848 25.04 16.3 61.4 67 10.3 50.5
07:35 1019 30.09 848 25.04 16.5 61.7 67 10.5 50.9
07:40 1019 30.09 848 25.04 16.6 61.9 65 10 49.9
07:45 1018 30.06 848 25.04 16.7 62.1 65 10.2 50.4
07:50 1018 30.06 848 25.04 17.2 63 64 10.5 50.8
07:55 1019 30.09 848 25.04 17.8 64.1 62 10.5 50.9
08:00 1019 30.09 848 25.04 18.1 64.6 61 10.7 51.2
08:05 1019 30.09 848 25.04 18.6 65.4 60 10.7 51.3
08:10 1019 30.09 848 25.04 18.7 65.6 58 10.5 50.9
08:15 1019 30.09 848 25.04 18.9 66 57 10.4 50.7
08:20 1019 30.09 848 25.04 19.6 67.3 52 9.7 49.5
08:25 1019 30.09 848 25.04 20.5 68.8 50 9.8 49.6
08:30 1019 30.09 848 25.04 20.8 69.4 49 9.8 49.6
08:35 1018 30.06 848 25.04 20.3 68.6 50 9.7 49.4
08:40 1019 30.09 848 25.04 20.6 69 49 9.7 49.5
08:45 1019 30.09 848 25.04 20.9 69.7 49 10 50.1
08:50 1018 30.06 848 25.04 21.4 70.6 49 10.4 50.6
08:55 1019 30.09 848 25.04 21.6 70.9 44 9.1 48.4
09:00 1019 30.09 848 25.04 22 71.5 43 9.1 48.4
09:05 1019 30.09 848 25.04 22.5 72.5 41 8.8 47.8
09:10 1019 30.09 848 25.04 22.4 72.3 43 9.4 48.9
09:15 1019 30.09 848 25.04 22.2 71.9 45 10 49.9
09:20 1019 30.09 848 25.04 22.4 72.2 43 9.5 49.1
09:25 1019 30.09 848 25.04 22.7 72.8 42 9.3 48.7
09:30 1019 30.09 848 25.04 22.9 73.1 43 9.9 49.8
09:35 1019 30.09 848 25.04 23.1 73.6 43 9.9 49.9
09:40 1019 30.09 848 25.04 23.1 73.6 46 11 51.8
09:45 1019 30.09 848 25.04 22.8 73.1 45 10.3 50.6
09:50 1019 30.09 848 25.04 22.9 73.3 44 10.2 50.4
09:55 1019 30.09 848 25.04 23.1 73.6 43 10.1 50.2
10:00 1019 30.09 848 25.04 23 73.4 39 8.6 47.5
10:05 1019 30.09 848 25.04 23.7 74.6 39 9.1 48.5
10:10 1019 30.09 848 25.04 24 75.2 39 9.5 49.1
10:15 1019 30.09 848 25.04 23.8 74.8 39 9.3 48.7
10:20 1019 30.09 848 25.04 23.8 74.9 36 8 46.4
10:25 1019 30.09 848 25.04 24 75.2 34 7.4 45.4
10:30 1019 30.09 848 25.04 24.4 75.9 34 7.6 45.7
10:35 1019 30.09 848 25.04 24.8 76.6 34 8.2 46.7
10:40 1019 30.09 848 25.04 24 75.2 37 8.5 47.3
10:45 1019 30.09 848 25.04 23.8 74.8 36 7.9 46.3
10:50 1019 30.09 848 25.04 24.7 76.4 34 7.9 46.2
10:55 1019 30.09 848 25.04 24.8 76.6 32 7.3 45.1
11:00 1019 30.09 848 25.04 25 77 31 6.9 44.3
11:05 1019 30.09 848 25.04 25.3 77.5 32 7.4 45.4
11:10 1019 30.09 848 25.04 25.3 77.5 31 7.2 45
11:15 1018 30.06 848 25.04 25.1 77.1 31 6.8 44.2
11:20 1018 30.06 848 25.04 25.1 77.1 31 6.8 44.2
11:25 1018 30.06 848 25.04 24.7 76.4 31 6.8 44.2
11:30 1018 30.06 848 25.04 25 76.9 31 6.9 44.4
11:35 1018 30.06 848 25.04 25.7 78.2 28 5.9 42.6
11:40 1018 30.06 848 25.04 25.9 78.5 28 6.2 43.1
11:45 1018 30.06 848 25.04 26 78.8 28 6.5 43.7
11:50 1018 30.06 848 25.04 25.1 77.1 28 5.7 42.3
11:55 1018 30.06 848 25.04 25.6 78.2 28 5.9 42.6
12:00 1018 30.06 848 25.04 25.9 78.7 27 5.7 42.3
12:05 1018 30.06 848 25.04 26.2 79.2 26 5.3 41.5
12:10 1018 30.06 848 25.04 26.3 79.4 28 6.6 43.8
12:15 1018 30.06 848 25.04 26.5 79.7 26 5.7 42.2
12:20 1018 30.06 848 25.04 26.5 79.7 27 6.1 43
12:25 1018 30.06 848 25.04 26.6 79.8 26 5.6 42.1
12:30 1018 30.06 848 25.04 26.7 80 26 6 42.8
12:35 1018 30.06 848 25.04 27 80.5 25 5.8 42.5
12:40 1018 30.06 848 25.04 27.2 81 26 6.2 43.2
12:45 1018 30.06 848 25.04 26.7 80 26 5.8 42.4
12:50 1018 30.06 848 25.04 26.4 79.6 26 5.4 41.8
12:55 1018 30.06 848 25.04 26.8 80.3 25 5.5 41.9
13:00 1018 30.06 847 25.01 26.4 79.4 25 5 41.1
13:05 1018 30.06 847 25.01 25.4 77.8 27 5.4 41.7
13:10 1018 30.06 847 25.01 26.5 79.8 26 5.6 42.2
13:15 1018 30.06 847 25.01 27 80.5 26 5.8 42.5
13:20 1018 30.06 847 25.01 26.7 80.1 26 6 42.8
13:25 1018 30.06 847 25.01 27.2 80.9 25 5.9 42.7
13:30 1018 30.06 847 25.01 27.4 81.4 25 5.9 42.6
13:35 1018 30.06 847 25.01 27.2 81 25 5.6 42.1
13:40 1018 30.06 847 25.01 27.8 82 24 5.7 42.3
13:45 1018 30.06 847 25.01 28 82.4 24 6 42.9
13:50 1018 30.06 847 25.01 28.4 83.2 24 6.2 43.2
13:55 1018 30.06 847 25.01 28 82.5 26 6.9 44.4
14:00 1018 30.06 847 25.01 27.7 81.8 25 5.9 42.6
14:05 1018 30.06 847 25.01 27.8 82 25 6 42.8
14:10 1018 30.06 847 25.01 28 82.4 25 6.7 44
14:15 1018 30.06 847 25.01 28.3 82.9 24 6.3 43.4
14:20 1018 30.06 847 25.01 27.1 80.7 26 6.2 43.2
14:25 1018 30.06 847 25.01 27.8 82.1 25 6.3 43.4
14:30 1018 30.06 847 25.01 28.3 82.9 25 6.5 43.8
14:35 1018 30.06 847 25.01 28.3 82.9 25 6.4 43.5
14:40 1018 30.06 847 25.01 28.7 83.7 23 6.2 43.1
14:45 1018 30.06 847 25.01 29.2 84.6 23 6.3 43.4
14:50 1018 30.06 847 25.01 29 84.2 22 5.6 42.1
14:55 1018 30.06 847 25.01 28.7 83.7 24 6.2 43.2
15:00 1018 30.06 847 25.01 29 84.2 21 4.5 40.1
15:05 1018 30.06 847 25.01 28.9 84.1 22 5.5 41.9
15:10 1018 30.06 847 25.01 28.7 83.7 20 3.8 38.8
15:15 1018 30.06 847 25.01 29 84.2 21 4.8 40.6
15:20 1018 30.06 847 25.01 29.1 84.3 20 4.2 39.5
15:25 1018 30.06 847 25.01 28.6 83.5 21 4.6 40.2
15:30 1018 30.06 847 25.01 29.3 84.7 21 4.8 40.6
15:35 1018 30.06 847 25.01 29.7 85.4 20 4.8 40.6
15:40 1018 30.06 847 25.01 29.3 84.8 20 4.1 39.4
15:45 1018 30.06 847 25.01 29.2 84.5 20 4.1 39.3
15:50 1018 30.06 847 25.01 29.6 85.3 19 3.9 39
15:55 1018 30.06 847 25.01 29.7 85.4 19 4 39.3
16:00 1018 30.06 847 25.01 29.4 85 19 3.5 38.3
16:05 1018 30.06 847 25.01 29.1 84.3 18 2.9 37.2
16:10 1018 30.06 847 25.01 28.9 84 19 3.1 37.6
16:15 1018 30.06 847 25.01 29.1 84.4 19 3.7 38.6
16:20 1018 30.06 847 25.01 29.5 85.1 18 2.8 37
16:25 1018 30.06 847 25.01 30 85.9 18 3.5 38.2
16:30 1018 30.06 847 25.01 29.8 85.7 18 3.3 37.9
16:35 1018 30.06 847 25.01 29.9 85.8 17 2.7 36.9
16:40 1018 30.06 847 25.01 29.8 85.7 18 3 37.4
16:45 1018 30.06 847 25.01 29.6 85.4 18 2.8 37
16:50 1018 30.06 847 25.01 29.6 85.3 16 1.6 34.9
16:55 1018 30.06 847 25.01 29.3 84.8 17 1.8 35.3
17:00 1018 30.06 847 25.01 29.5 85.2 15 0.7 33.3
17:05 1018 30.06 847 25.01 29.5 85.1 15 1 33.7
17:10 1018 30.06 847 25.01 29.8 85.6 16 1.5 34.7
17:15 1018 30.06 847 25.01 29.9 85.9 16 1.6 34.9
17:20 1018 30.06 847 25.01 29.8 85.6 15 1 33.7
17:25 1018 30.06 847 25.01 29.6 85.4 16 1.4 34.5
17:30 1018 30.06 847 25.01 29.6 85.4 16 1.3 34.4
17:35 1018 30.06 847 25.01 29.5 85.1 16 1.5 34.7
17:40 1018 30.06 847 25.01 29.3 84.8 16 1.2 34.2
17:45 1018 30.06 847 25.01 28.9 84 19 3.1 37.5
17:50 1018 30.06 847 25.01 28.6 83.6 18 2.5 36.5
17:55 1018 30.06 847 25.01 29 84.1 18 2.7 36.9
18:00 1018 30.06 847 25.01 28.3 83 18 2.3 36.2
18:05 1018 30.06 847 25.01 28.4 83.1 19 2.6 36.7
18:10 1018 30.06 847 25.01 28.5 83.4 18 2.5 36.6
18:15 1018 30.06 847 25.01 28.6 83.4 18 2.5 36.5
18:20 1018 30.06 847 25.01 28.1 82.6 19 2.4 36.2
18:25 1018 30.06 847 25.01 27.9 82.2 18 1.6 34.9
18:30 1018 30.06 847 25.01 28.1 82.5 19 2.5 36.5
18:35 1018 30.06 847 25.01 27.8 82 18 1.7 35
18:40 1018 30.06 847 25.01 28.2 82.8 19 2.5 36.5
18:45 1018 30.06 847 25.01 28 82.4 20 3 37.4
18:50 1018 30.06 847 25.01 27.7 81.9 20 3.2 37.8
18:55 1018 30.06 847 25.01 27.7 81.8 19 2.5 36.4
19:00 1018 30.06 847 25.01 27.7 81.9 20 2.7 36.9
19:05 1018 30.06 848 25.04 27.9 82.1 22 4.2 39.5
19:10 1018 30.06 848 25.04 27.6 81.6 24 5.3 41.5
19:15 1018 30.06 848 25.04 27.4 81.3 26 6.4 43.4
19:20 1019 30.09 848 25.04 27.2 80.9 25 6 42.8
19:25 1019 30.09 848 25.04 26.7 80.1 27 6.5 43.6
19:30 1019 30.09 848 25.04 26.3 79.3 29 6.9 44.4
19:35 1019 30.09 848 25.04 25.9 78.7 29 6.8 44.3
19:40 1019 30.09 848 25.04 25.7 78.3 30 7.1 44.8
19:45 1019 30.09 848 25.04 25.5 78 31 7.3 45.1
19:50 1019 30.09 848 25.04 25.5 77.9 31 7.5 45.5
19:55 1019 30.09 849 25.07 25.1 77.2 35 9 48.2
20:00 1020 30.12 849 25.07 24.1 75.4 38 9.1 48.4
20:05 1020 30.12 849 25.07 23.7 74.6 37 8.4 47.1
20:10 1020 30.12 849 25.07 23.5 74.2 37 8.2 46.7
20:15 1020 30.12 849 25.07 23.5 74.2 36 7.7 45.8
20:20 1020 30.12 849 25.07 23.8 74.8 36 8.2 46.8
20:25 1020 30.12 850 25.1 23.4 74.1 40 9.2 48.6
20:30 1020 30.12 850 25.1 22.4 72.3 45 10 50
20:35 1021 30.15 850 25.1 21 69.8 48 9.8 49.6
20:40 1021 30.15 850 25.1 20.3 68.5 50 9.7 49.5
20:45 1021 30.15 850 25.1 19.7 67.5 51 9.6 49.2
20:50 1021 30.15 850 25.1 19.5 67.1 52 9.4 48.9
20:55 1021 30.15 850 25.1 19.3 66.7 53 9.5 49
21:00 1021 30.15 850 25.1 19.1 66.3 53 9.3 48.8
21:05 1021 30.15 850 25.1 18.8 65.9 54 9.3 48.8
21:10 1021 30.15 850 25.1 18.6 65.4 54 9.2 48.6
21:15 1021 30.15 851 25.13 18.4 65.1 54 9.2 48.5
21:20 1022 30.18 851 25.13 18.3 64.9 55 9.1 48.4
21:25 1022 30.18 851 25.13 18.2 64.7 55 9.2 48.5
21:30 1022 30.18 851 25.13 18 64.4 55 8.9 48.1
21:35 1022 30.18 851 25.13 18 64.4 55 9 48.2
21:40 1022 30.18 851 25.13 17.9 64.3 55 8.9 48
21:45 1022 30.18 851 25.13 17.9 64.1 56 8.9 48.1
21:50 1022 30.18 852 25.16 17.7 63.9 55 8.7 47.6
21:55 1023 30.21 852 25.16 17.7 63.9 56 8.9 48
22:00 1023 30.21 852 25.16 17.5 63.5 56 8.8 47.8
22:05 1023 30.21 852 25.16 17.4 63.2 57 8.8 47.8
22:10 1023 30.21 852 25.16 17.3 63.1 57 8.7 47.7
22:15 1023 30.21 852 25.16 17.1 62.8 58 8.8 47.8
22:20 1023 30.21 852 25.16 17 62.5 58 8.7 47.7
22:25 1023 30.21 852 25.16 16.9 62.4 58 8.7 47.7
22:30 1023 30.21 853 25.19 16.8 62.2 58 8.6 47.5
22:35 1023 30.21 853 25.19 16.7 62 58 8.6 47.4
22:40 1024 30.24 853 25.19 16.6 61.9 59 8.6 47.5
22:45 1024 30.24 853 25.19 16.5 61.7 59 8.6 47.5
22:50 1024 30.24 853 25.19 16.4 61.4 59 8.4 47.2
22:55 1024 30.24 853 25.19 16.3 61.4 59 8.3 47
23:00 1024 30.24 853 25.19 16.4 61.4 59 8.5 47.3
23:05 1024 30.24 853 25.19 16.1 61.1 60 8.5 47.4
23:10 1024 30.24 853 25.19 16 60.7 61 8.4 47.2
23:15 1024 30.24 853 25.19 15.7 60.3 61 8.3 47
23:20 1024 30.24 853 25.19 15.6 60.1 61 8.3 46.9
23:25 1024 30.24 853 25.19 15.4 59.8 62 8.3 46.9
23:30 1024 30.24 853 25.19 15.3 59.6 63 8.4 47.1
23:35 1024 30.24 853 25.19 15.2 59.3 63 8.3 47
23:40 1024 30.24 853 25.19 15 59 63 8.2 46.7
23:45 1024 30.24 853 25.19 14.9 58.9 64 8.2 46.8
23:50 1024 30.24 854 25.22 15 58.9 64 8.2 46.8
23:55 1024 30.24 854 25.22 15 59 64 8.2 46.8
24:00 1024 30.24 854 25.22 15 58.9 63 8.1 46.7